createdAt,value
2023-03-23T15:59:56.768Z,2.10
2023-03-23T16:05:21.384Z,2.60
2023-03-23T16:10:46.848Z,2.80
2023-03-23T16:16:51.036Z,2.80
2023-03-23T16:22:17.136Z,2.90
2023-03-23T16:27:43.365Z,3.00
2023-03-23T16:33:07.604Z,4.80
2023-03-23T16:38:33.699Z,4.60
2023-03-23T16:44:15.213Z,5.10
2023-03-23T16:49:40.367Z,4.80
2023-03-23T16:55:06.103Z,3.80
2023-03-23T17:00:30.756Z,4.10
2023-03-23T17:05:55.421Z,4.30
2023-03-23T17:11:19.980Z,4.20
2023-03-23T17:16:45.507Z,4.60
2023-03-23T17:22:09.742Z,4.80
2023-03-23T17:27:34.531Z,4.70
2023-03-23T17:32:58.726Z,5.60
2023-03-23T17:38:23.120Z,6.10
2023-03-23T17:43:47.306Z,6.30
2023-03-23T17:49:12.837Z,5.60
2023-03-23T17:54:37.576Z,5.20
2023-03-23T18:00:01.669Z,5.60
2023-03-23T18:05:32.295Z,5.40
2023-03-23T18:10:57.773Z,6.30
2023-03-23T18:16:21.899Z,6.70
2023-03-23T18:21:46.588Z,6.70
2023-03-23T18:27:11.260Z,8.10
2023-03-23T18:32:36.882Z,9.30
2023-03-23T18:38:01.580Z,8.10
2023-03-23T18:43:26.139Z,9.30
2023-03-23T18:48:50.525Z,6.10
2023-03-23T18:54:18.099Z,6.70
2023-03-23T18:59:42.604Z,4.70
2023-03-23T19:05:51.058Z,3.50
2023-03-23T19:11:19.450Z,3.50
2023-03-23T19:16:43.463Z,4.20
2023-03-23T19:22:09.282Z,4.00
2023-03-23T19:33:01.858Z,2.30
2023-03-23T19:38:26.570Z,2.30
2023-03-23T19:43:51.228Z,1.40
2023-03-23T19:49:15.505Z,1.90
2023-03-23T19:54:41.089Z,1.60
2023-03-23T20:00:08.375Z,1.60
2023-03-23T20:05:36.897Z,1.70
2023-03-23T20:11:12.274Z,1.90
2023-03-23T20:16:39.026Z,2.60
2023-03-23T20:22:05.016Z,4.20
2023-03-23T20:27:57.685Z,2.80
2023-03-23T20:33:42.596Z,2.40
2023-03-23T20:39:12.029Z,2.40
2023-03-23T20:44:40.552Z,1.90
2023-03-23T20:50:07.527Z,1.60
2023-03-23T20:55:33.554Z,2.50
2023-03-23T21:01:01.910Z,1.90
2023-03-23T21:06:29.741Z,2.30
2023-03-23T21:11:55.920Z,3.40
2023-03-23T21:17:48.194Z,2.40
2023-03-23T21:24:01.662Z,2.60
2023-03-23T21:29:28.324Z,4.10
2023-03-23T21:34:53.778Z,3.60
2023-03-23T21:40:21.288Z,3.30
2023-03-23T21:45:46.670Z,3.20
2023-03-23T21:51:15.222Z,3.00
2023-03-23T21:56:40.435Z,3.10
2023-03-23T22:02:04.420Z,3.10
2023-03-23T22:07:31.088Z,2.90
2023-03-23T22:12:57.436Z,2.70
2023-03-23T22:18:22.298Z,3.20
2023-03-23T22:23:47.248Z,2.50
2023-03-23T22:29:11.804Z,2.70
2023-03-23T22:34:36.084Z,2.90
2023-03-23T22:40:00.988Z,2.60
2023-03-23T22:45:27.787Z,2.40
2023-03-23T22:50:53.378Z,2.50
2023-03-23T22:56:18.373Z,2.30
2023-03-23T23:01:43.013Z,1.80
2023-03-23T23:07:12.787Z,2.20
2023-03-23T23:12:37.661Z,2.10
2023-03-23T23:18:05.521Z,2.00
2023-03-23T23:23:30.201Z,2.40
2023-03-23T23:28:54.869Z,2.40
2023-03-23T23:34:19.410Z,1.50
2023-03-23T23:39:43.582Z,1.50
2023-03-23T23:45:10.704Z,1.60
2023-03-23T23:50:36.124Z,1.80
2023-03-23T23:56:04.038Z,1.30
